HBKEY LSZS-LIPZ
Flight info
| Callsign | HBKEY |
|---|---|
| Flight time | N/A |
| Altitude | 17000 |
| Route | PELAD DCT ATPED DCT ALBET |
| Aircraft | DA42/L-SBDGRY/S |
Departure
| Time | 2026-05-06 19:06 |
|---|---|
| Airport | Engadin Airport (LSZS) |
Arrival
| Time | N/A |
|---|---|
| Airport | Venice Marco Polo Airport (LIPZ) |
| Time | Latitude | Longitude | Altitude | Speed | Heading |
|---|---|---|---|---|---|
| 2026-05-06 19:06 | 46.49497 | 9.90489 | 8088 ft | 106 kts | 144° |
| 2026-05-06 19:06 | 46.48906 | 9.91136 | 8532 ft | 107 kts | 145° |
| 2026-05-06 19:07 | 46.48303 | 9.91785 | 8957 ft | 109 kts | 145° |
| 2026-05-06 19:07 | 46.47701 | 9.92444 | 9440 ft | 108 kts | 146° |
| 2026-05-06 19:07 | 46.47112 | 9.93116 | 9854 ft | 110 kts | 145° |
| 2026-05-06 19:07 | 46.46523 | 9.93836 | 10230 ft | 112 kts | 131° |
| 2026-05-06 19:08 | 46.46101 | 9.94786 | 10617 ft | 115 kts | 126° |
| 2026-05-06 19:08 | 46.45771 | 9.95847 | 11072 ft | 120 kts | 110° |
| 2026-05-06 19:08 | 46.45657 | 9.96610 | 11406 ft | 120 kts | 113° |
| 2026-05-06 19:10 | 46.45643 | 9.96672 | 11431 ft | 120 kts | 115° |
| 2026-05-06 19:10 | 46.45199 | 9.97662 | 11867 ft | 117 kts | 136° |
| 2026-05-06 19:11 | 46.44662 | 9.98546 | 12281 ft | 115 kts | 143° |
| 2026-05-06 19:11 | 46.44118 | 9.99396 | 12751 ft | 115 kts | 143° |
| 2026-05-06 19:11 | 46.43571 | 10.00243 | 13184 ft | 118 kts | 143° |
| 2026-05-06 19:11 | 46.43008 | 10.01110 | 13599 ft | 117 kts | 144° |
| 2026-05-06 19:12 | 46.42446 | 10.01972 | 14023 ft | 119 kts | 144° |
| 2026-05-06 19:12 | 46.41873 | 10.02848 | 14394 ft | 120 kts | 144° |
| 2026-05-06 19:12 | 46.41302 | 10.03725 | 14748 ft | 120 kts | 144° |
| 2026-05-06 19:12 | 46.40714 | 10.04617 | 14988 ft | 131 kts | 144° |
| 2026-05-06 19:13 | 46.40039 | 10.05635 | 15107 ft | 142 kts | 142° |
| 2026-05-06 19:13 | 46.39362 | 10.06677 | 15384 ft | 142 kts | 143° |
| 2026-05-06 19:13 | 46.38680 | 10.07723 | 15663 ft | 143 kts | 143° |
| 2026-05-06 19:13 | 46.37992 | 10.08777 | 15916 ft | 145 kts | 143° |
| 2026-05-06 19:14 | 46.37300 | 10.09837 | 16186 ft | 145 kts | 143° |
| 2026-05-06 19:14 | 46.36617 | 10.10880 | 16524 ft | 145 kts | 143° |
| 2026-05-06 19:14 | 46.35919 | 10.11941 | 16774 ft | 147 kts | 143° |
| 2026-05-06 19:14 | 46.35199 | 10.13015 | 16929 ft | 154 kts | 143° |
| 2026-05-06 19:15 | 46.34439 | 10.14183 | 16954 ft | 164 kts | 142° |
| 2026-05-06 19:15 | 46.33621 | 10.15432 | 16954 ft | 177 kts | 141° |
| 2026-05-06 19:15 | 46.32757 | 10.16753 | 16943 ft | 182 kts | 141° |
| 2026-05-06 19:15 | 46.31896 | 10.18082 | 16945 ft | 181 kts | 141° |
| 2026-05-06 19:16 | 46.31031 | 10.19394 | 16947 ft | 180 kts | 142° |
| 2026-05-06 19:16 | 46.30157 | 10.20713 | 16945 ft | 182 kts | 141° |
| 2026-05-06 19:16 | 46.29285 | 10.22039 | 16944 ft | 181 kts | 141° |
| 2026-05-06 19:16 | 46.28424 | 10.23346 | 16950 ft | 183 kts | 141° |
| 2026-05-06 19:17 | 46.27538 | 10.24688 | 16952 ft | 185 kts | 141° |
| 2026-05-06 19:17 | 46.26645 | 10.26044 | 16951 ft | 187 kts | 141° |
| 2026-05-06 19:17 | 46.25743 | 10.27413 | 16957 ft | 189 kts | 141° |
| 2026-05-06 19:17 | 46.24833 | 10.28792 | 16958 ft | 190 kts | 141° |
| 2026-05-06 19:18 | 46.23920 | 10.30177 | 16955 ft | 190 kts | 141° |
| 2026-05-06 19:18 | 46.23011 | 10.31554 | 16956 ft | 189 kts | 141° |
| 2026-05-06 19:18 | 46.22102 | 10.32934 | 16959 ft | 191 kts | 141° |
| 2026-05-06 19:18 | 46.21179 | 10.34326 | 16958 ft | 193 kts | 141° |
| 2026-05-06 19:19 | 46.20264 | 10.35705 | 16953 ft | 192 kts | 141° |
| 2026-05-06 19:19 | 46.19344 | 10.37098 | 16953 ft | 191 kts | 141° |
| 2026-05-06 19:19 | 46.18428 | 10.38483 | 16952 ft | 191 kts | 141° |
| 2026-05-06 19:19 | 46.17504 | 10.39865 | 16955 ft | 193 kts | 141° |
| 2026-05-06 19:20 | 46.16587 | 10.41272 | 16941 ft | 192 kts | 142° |
| 2026-05-06 19:20 | 46.10639 | 10.50247 | 16935 ft | 189 kts | 142° |
| 2026-05-06 19:20 | 46.03421 | 10.61116 | 16975 ft | 184 kts | 142° |
| 2026-05-06 19:20 | 45.96265 | 10.71854 | 16952 ft | 185 kts | 142° |
| 2026-05-06 19:21 | 45.89214 | 10.82381 | 16927 ft | 180 kts | 143° |
| 2026-05-06 19:21 | 45.82121 | 10.92944 | 16935 ft | 187 kts | 144° |
| 2026-05-06 19:21 | 45.74848 | 11.03712 | 16923 ft | 192 kts | 144° |
| 2026-05-06 19:21 | 45.60338 | 11.25078 | 16878 ft | 193 kts | 144° |
| 2026-05-06 19:22 | 45.53456 | 11.35182 | 16903 ft | 189 kts | 145° |
| 2026-05-06 19:22 | 45.52537 | 11.36528 | 16904 ft | 190 kts | 145° |
| 2026-05-06 19:22 | 45.51612 | 11.37879 | 16905 ft | 191 kts | 145° |
| 2026-05-06 19:22 | 45.50683 | 11.39234 | 16905 ft | 191 kts | 145° |
| 2026-05-06 19:23 | 45.49753 | 11.40592 | 16900 ft | 192 kts | 145° |
| 2026-05-06 19:23 | 45.47638 | 11.43679 | 16906 ft | 191 kts | 144° |
| 2026-05-06 19:23 | 45.46842 | 11.44841 | 16908 ft | 191 kts | 145° |
| 2026-05-06 19:23 | 45.46785 | 11.44925 | 16908 ft | 191 kts | 145° |
| 2026-05-06 19:24 | 45.46349 | 11.45557 | 16878 ft | 193 kts | 145° |
| 2026-05-06 19:24 | 45.45362 | 11.46978 | 16409 ft | 209 kts | 144° |
| 2026-05-06 19:24 | 45.44323 | 11.48485 | 15954 ft | 217 kts | 143° |
| 2026-05-06 19:24 | 45.43258 | 11.50041 | 15506 ft | 221 kts | 142° |
| 2026-05-06 19:25 | 45.42226 | 11.51680 | 15051 ft | 227 kts | 132° |
| 2026-05-06 19:25 | 45.41375 | 11.53579 | 14611 ft | 229 kts | 129° |
| 2026-05-06 19:25 | 45.40545 | 11.55508 | 14181 ft | 227 kts | 129° |
| 2026-05-06 19:25 | 45.39734 | 11.57376 | 13731 ft | 223 kts | 129° |
| 2026-05-06 19:26 | 45.38921 | 11.59226 | 13201 ft | 217 kts | 129° |
| 2026-05-06 19:26 | 45.38134 | 11.61015 | 12673 ft | 209 kts | 129° |
| 2026-05-06 19:26 | 45.37382 | 11.62724 | 12152 ft | 201 kts | 129° |
| 2026-05-06 19:26 | 45.36697 | 11.64447 | 11637 ft | 203 kts | 117° |
| 2026-05-06 19:27 | 45.36271 | 11.66350 | 11137 ft | 201 kts | 112° |
| 2026-05-06 19:27 | 45.35884 | 11.68258 | 10636 ft | 201 kts | 112° |
| 2026-05-06 19:27 | 45.35476 | 11.70163 | 10157 ft | 202 kts | 113° |
| 2026-05-06 19:27 | 45.33863 | 11.77689 | 8141 ft | 200 kts | 111° |
| 2026-05-06 19:28 | 45.32369 | 11.84799 | 6258 ft | 190 kts | 110° |
| 2026-05-06 19:28 | 45.30631 | 11.92952 | 3889 ft | 178 kts | 109° |
| 2026-05-06 19:28 | 45.30302 | 11.94542 | 3789 ft | 159 kts | 110° |
| 2026-05-06 19:28 | 45.29988 | 11.96007 | 3771 ft | 150 kts | 110° |
| 2026-05-06 19:29 | 45.29697 | 11.97384 | 3794 ft | 141 kts | 110° |
| 2026-05-06 19:29 | 45.29432 | 11.98622 | 4008 ft | 124 kts | 111° |
| 2026-05-06 19:29 | 45.29176 | 11.99805 | 4014 ft | 127 kts | 111° |
| 2026-05-06 19:29 | 45.28915 | 12.01014 | 4014 ft | 129 kts | 111° |
| 2026-05-06 19:30 | 45.28652 | 12.02233 | 4017 ft | 129 kts | 111° |
| 2026-05-06 19:30 | 45.28388 | 12.03457 | 4014 ft | 130 kts | 111° |
| 2026-05-06 19:30 | 45.28128 | 12.04672 | 4011 ft | 131 kts | 110° |
| 2026-05-06 19:30 | 45.28110 | 12.05980 | 4017 ft | 137 kts | 79° |
| 2026-05-06 19:31 | 45.28587 | 12.07154 | 4017 ft | 140 kts | 45° |
| 2026-05-06 19:31 | 45.29313 | 12.08090 | 3990 ft | 143 kts | 43° |
| 2026-05-06 19:31 | 45.36313 | 12.16987 | 3016 ft | 146 kts | 43° |
| 2026-05-06 19:32 | 45.38841 | 12.20204 | 2799 ft | 156 kts | 43° |
| 2026-05-06 19:32 | 45.41712 | 12.23876 | 2058 ft | 119 kts | 43° |
| 2026-05-06 19:32 | 45.44092 | 12.26937 | 1441 ft | 115 kts | 44° |
| 2026-05-06 19:32 | 45.46392 | 12.29888 | 836 ft | 108 kts | 41° |
| 2026-05-06 19:33 | 45.47695 | 12.31566 | 506 ft | 108 kts | 42° |
| 2026-05-06 19:33 | 45.48255 | 12.32288 | 359 ft | 109 kts | 43° |
| 2026-05-06 19:33 | 45.48804 | 12.33002 | 218 ft | 106 kts | 45° |
| 2026-05-06 19:33 | 45.49375 | 12.33759 | 303 ft | 115 kts | 44° |
| 2026-05-06 19:34 | 45.49953 | 12.34467 | 507 ft | 126 kts | 41° |